Friday, November 17, 2017, 9:18 PM GMT
Back to Local

CWAF, Ile Rouge Meteorological Aeronautical Presentation System

Location: , , Canada Lat: 48.083
Local Time: 9:18 PM GMT (21:18 GMT) Lon: -69.55
Time Zone: GMT Elev: 16 ft

Show me the last for .
Show Coded

Time T Td Feel RH Dir Speed Gust Alt SLP Vis Weather Sky Remarks
2017-11-17 21:00 26 22 6 82 300° 43 54 - - 0 Peak wind: 54 mph (47 kts) from 300° at 51 min
2017-11-17 20:00 27 23 9 82 300° 35 43 - - 0 Peak wind: 50 mph (44 kts) from 310° at 30 min
2017-11-17 19:00 27 22 8 82 310° 40 49 - - 0 Peak wind: 49 mph (43 kts) from 300° at 19 min
2017-11-17 18:00 28 24 9 82 300° 39 51 - - 0 Peak wind: 54 mph (47 kts) from 310° at 11 min
2017-11-17 17:00 28 23 9 81 300° 46 52 - - 0 Peak wind: 57 mph (50 kts) from 300° at 04 min
2017-11-17 16:00 29 26 9 88 300° 46 56 - - 0 Peak wind: 56 mph (49 kts) from 300° at 54 min
2017-11-17 15:00 29 25 11 83 300° 40 48 - - 0 Peak wind: 49 mph (43 kts) from 300° at 31 min
2017-11-17 14:00 31 26 13 83 300° 38 46 - - 0 Peak wind: 46 mph (40 kts) from 310° at 31 min
2017-11-17 13:00 32 28 15 85 310° 38 45 - - 0 Peak wind: 44 mph (39 kts) from 300° at 52 min
2017-11-17 12:00 36 31 22 84 310° 28 33 - - 0 Peak wind: 33 mph (29 kts) from 310° at 56 min
2017-11-17 11:00 37 33 26 87 310° 22 - - - 0 Peak wind: 26 mph (23 kts) from 310° at 53 min
2017-11-17 10:00 36 34 27 89 330° 16 - - - 0 None
2017-11-17 09:00 36 34 29 93 350° 9 - - - 0 None
2017-11-17 08:00 36 34 27 93 330° 13 - - - 0 None
2017-11-17 07:00 35 34 26 93 10° 14 - - - 0 None
2017-11-17 06:00 35 34 26 95 20° 13 - - - 0 None
2017-11-17 05:00 36 34 29 94 30° 8 - - - 0 None
2017-11-17 04:00 36 35 29 95 50° 9 - - - 0 None
2017-11-17 03:00 35 34 27 95 20° 12 - - - 0 None
2017-11-17 02:00 36 35 30 94 20° 7 - - - 0 None
2017-11-17 01:00 36 35 32 93 40° 6 - - - 0 None
2017-11-17 00:00 35 35 - 99 40° 2 - - - 0 None
2017-11-16 23:00 36 34 31 93 20° 6 - - - 0 None
2017-11-16 22:00 35 34 30 93 20° 6 - - - 0 None

Support USWX by starting your Amazon purchase here.